San Pedro, Texas
Current Conditions -  °F | °C
As of 7:13 AM on Thursday 30 Oct 2014 (Local Time) from KCRP Reporting Station
Haze Haze  
Wind Chill: 72°   Ceiling: 200
Heat Index: 72°   Visibility: 1mi
Dew Point: 70°   Wind: 9mph
Humidity: 93%   Direction: 30°NNE
Pressure: 30.07"   Gusts: NA
Location:  27.7757°N, 97.7554°W
Report Text: KCRP 301213Z 03008KT 1SM BR OVC002 22/21 A3007 RMK AO2 T02220211
Loading
Personal Weather Stations






























Interactive Weather Map
Tropical Storm Tracking
New forecast layout! Learn more

10-Day Weather Forecast

Advertisements
Track Severe Weather on mobile